sensor_id;sensor_type;location;lat;lon;timestamp;temperature;humidity
61392;DHT22;47261;52.892;5.738;2023-01-09T00:00:51;8.30;99.90
61392;DHT22;47261;52.892;5.738;2023-01-09T00:03:17;8.40;99.90
61392;DHT22;47261;52.892;5.738;2023-01-09T00:05:43;8.40;99.90
61392;DHT22;47261;52.892;5.738;2023-01-09T00:08:08;8.50;99.90
61392;DHT22;47261;52.892;5.738;2023-01-09T00:10:34;8.50;99.90
61392;DHT22;47261;52.892;5.738;2023-01-09T00:13:00;8.60;99.90
61392;DHT22;47261;52.892;5.738;2023-01-09T00:15:25;8.60;99.60
61392;DHT22;47261;52.892;5.738;2023-01-09T00:17:51;8.60;99.40
61392;DHT22;47261;52.892;5.738;2023-01-09T00:20:16;8.70;99.20
61392;DHT22;47261;52.892;5.738;2023-01-09T00:22:42;8.70;99.10
61392;DHT22;47261;52.892;5.738;2023-01-09T00:25:08;8.70;99.00
61392;DHT22;47261;52.892;5.738;2023-01-09T00:27:35;8.70;98.90
61392;DHT22;47261;52.892;5.738;2023-01-09T00:30:01;8.70;98.90
61392;DHT22;47261;52.892;5.738;2023-01-09T00:32:27;8.70;98.80
61392;DHT22;47261;52.892;5.738;2023-01-09T00:34:54;8.70;98.90
61392;DHT22;47261;52.892;5.738;2023-01-09T00:37:20;8.70;98.90
61392;DHT22;47261;52.892;5.738;2023-01-09T00:39:46;8.70;98.90
61392;DHT22;47261;52.892;5.738;2023-01-09T00:42:16;8.70;98.90
61392;DHT22;47261;52.892;5.738;2023-01-09T00:44:49;8.70;98.90
61392;DHT22;47261;52.892;5.738;2023-01-09T00:47:26;8.70;99.00
61392;DHT22;47261;52.892;5.738;2023-01-09T00:49:54;8.70;99.00
61392;DHT22;47261;52.892;5.738;2023-01-09T00:52:23;8.70;99.00
61392;DHT22;47261;52.892;5.738;2023-01-09T00:54:49;8.70;99.00
61392;DHT22;47261;52.892;5.738;2023-01-09T00:57:15;8.70;99.10
61392;DHT22;47261;52.892;5.738;2023-01-09T00:59:41;8.70;99.10
61392;DHT22;47261;52.892;5.738;2023-01-09T01:02:07;8.70;99.10
61392;DHT22;47261;52.892;5.738;2023-01-09T01:04:33;8.70;99.10
61392;DHT22;47261;52.892;5.738;2023-01-09T01:07:17;8.70;99.10
61392;DHT22;47261;52.892;5.738;2023-01-09T01:10:01;8.70;99.00
61392;DHT22;47261;52.892;5.738;2023-01-09T01:12:26;8.70;99.00
61392;DHT22;47261;52.892;5.738;2023-01-09T01:14:52;8.70;98.90
61392;DHT22;47261;52.892;5.738;2023-01-09T01:17:18;8.70;98.90
61392;DHT22;47261;52.892;5.738;2023-01-09T01:19:44;8.60;98.80
61392;DHT22;47261;52.892;5.738;2023-01-09T01:22:10;8.60;98.60
61392;DHT22;47261;52.892;5.738;2023-01-09T01:24:35;8.60;98.60
61392;DHT22;47261;52.892;5.738;2023-01-09T01:27:01;8.60;98.60
61392;DHT22;47261;52.892;5.738;2023-01-09T01:29:27;8.60;98.50
61392;DHT22;47261;52.892;5.738;2023-01-09T01:31:52;8.60;98.50
61392;DHT22;47261;52.892;5.738;2023-01-09T01:34:18;8.50;98.40
61392;DHT22;47261;52.892;5.738;2023-01-09T01:36:44;8.50;98.40
61392;DHT22;47261;52.892;5.738;2023-01-09T01:39:09;8.50;98.30
61392;DHT22;47261;52.892;5.738;2023-01-09T01:41:36;8.50;98.30
61392;DHT22;47261;52.892;5.738;2023-01-09T01:44:05;8.50;98.20
61392;DHT22;47261;52.892;5.738;2023-01-09T01:46:32;8.40;98.20
61392;DHT22;47261;52.892;5.738;2023-01-09T01:49:13;8.40;98.30
61392;DHT22;47261;52.892;5.738;2023-01-09T01:51:44;8.40;98.40
61392;DHT22;47261;52.892;5.738;2023-01-09T01:54:19;8.40;98.50
61392;DHT22;47261;52.892;5.738;2023-01-09T01:56:51;8.40;98.50
61392;DHT22;47261;52.892;5.738;2023-01-09T01:59:37;8.30;98.50
61392;DHT22;47261;52.892;5.738;2023-01-09T02:02:04;8.30;98.40
61392;DHT22;47261;52.892;5.738;2023-01-09T02:04:32;8.30;98.40
61392;DHT22;47261;52.892;5.738;2023-01-09T02:07:00;8.20;98.60
61392;DHT22;47261;52.892;5.738;2023-01-09T02:09:27;8.10;98.50
61392;DHT22;47261;52.892;5.738;2023-01-09T02:11:55;8.10;98.50
61392;DHT22;47261;52.892;5.738;2023-01-09T02:14:25;8.10;98.50
61392;DHT22;47261;52.892;5.738;2023-01-09T02:17:07;8.10;98.60
61392;DHT22;47261;52.892;5.738;2023-01-09T02:25:50;7.90;98.70
61392;DHT22;47261;52.892;5.738;2023-01-09T02:28:40;7.90;98.70
61392;DHT22;47261;52.892;5.738;2023-01-09T02:31:21;7.80;98.80
61392;DHT22;47261;52.892;5.738;2023-01-09T02:34:20;7.80;98.80
61392;DHT22;47261;52.892;5.738;2023-01-09T02:37:00;7.70;98.90
61392;DHT22;47261;52.892;5.738;2023-01-09T02:42:43;7.70;99.00
61392;DHT22;47261;52.892;5.738;2023-01-09T02:45:09;7.70;99.00
61392;DHT22;47261;52.892;5.738;2023-01-09T02:47:38;7.60;99.10
61392;DHT22;47261;52.892;5.738;2023-01-09T02:50:08;7.60;99.10
61392;DHT22;47261;52.892;5.738;2023-01-09T03:03:37;7.50;99.10
61392;DHT22;47261;52.892;5.738;2023-01-09T03:06:33;7.40;99.10
61392;DHT22;47261;52.892;5.738;2023-01-09T03:09:05;7.40;99.30
61392;DHT22;47261;52.892;5.738;2023-01-09T03:11:38;7.40;99.50
61392;DHT22;47261;52.892;5.738;2023-01-09T03:14:20;7.40;99.50
61392;DHT22;47261;52.892;5.738;2023-01-09T03:16:50;7.40;99.70
61392;DHT22;47261;52.892;5.738;2023-01-09T03:19:20;7.40;99.80
61392;DHT22;47261;52.892;5.738;2023-01-09T03:21:46;7.50;99.90
61392;DHT22;47261;52.892;5.738;2023-01-09T03:24:12;7.50;99.90
61392;DHT22;47261;52.892;5.738;2023-01-09T03:26:38;7.50;99.90
61392;DHT22;47261;52.892;5.738;2023-01-09T03:29:04;7.50;99.90
61392;DHT22;47261;52.892;5.738;2023-01-09T03:31:30;7.50;99.90
61392;DHT22;47261;52.892;5.738;2023-01-09T03:33:56;7.60;99.90
61392;DHT22;47261;52.892;5.738;2023-01-09T03:36:22;7.50;99.90
61392;DHT22;47261;52.892;5.738;2023-01-09T03:38:48;7.60;99.90
61392;DHT22;47261;52.892;5.738;2023-01-09T03:41:16;7.60;99.90
61392;DHT22;47261;52.892;5.738;2023-01-09T03:43:41;7.60;99.80
61392;DHT22;47261;52.892;5.738;2023-01-09T03:46:07;7.60;99.70
61392;DHT22;47261;52.892;5.738;2023-01-09T03:48:33;7.60;99.60
61392;DHT22;47261;52.892;5.738;2023-01-09T03:50:58;7.50;99.50
61392;DHT22;47261;52.892;5.738;2023-01-09T03:53:25;7.50;99.40
61392;DHT22;47261;52.892;5.738;2023-01-09T03:55:54;7.50;99.40
61392;DHT22;47261;52.892;5.738;2023-01-09T03:58:20;7.40;99.50
61392;DHT22;47261;52.892;5.738;2023-01-09T04:00:47;7.40;99.50
61392;DHT22;47261;52.892;5.738;2023-01-09T04:03:14;7.40;99.80
61392;DHT22;47261;52.892;5.738;2023-01-09T04:05:40;7.40;99.50
61392;DHT22;47261;52.892;5.738;2023-01-09T04:08:06;7.40;99.50
61392;DHT22;47261;52.892;5.738;2023-01-09T04:10:32;7.30;99.50
61392;DHT22;47261;52.892;5.738;2023-01-09T04:12:57;7.30;99.50
61392;DHT22;47261;52.892;5.738;2023-01-09T04:15:23;7.30;99.50
61392;DHT22;47261;52.892;5.738;2023-01-09T04:17:49;7.20;99.50
61392;DHT22;47261;52.892;5.738;2023-01-09T04:20:15;7.20;99.50
61392;DHT22;47261;52.892;5.738;2023-01-09T04:22:41;7.20;99.60
61392;DHT22;47261;52.892;5.738;2023-01-09T04:25:07;7.20;99.70
61392;DHT22;47261;52.892;5.738;2023-01-09T04:27:32;7.20;99.70
61392;DHT22;47261;52.892;5.738;2023-01-09T04:29:58;7.20;99.80
61392;DHT22;47261;52.892;5.738;2023-01-09T04:32:24;7.20;99.90
61392;DHT22;47261;52.892;5.738;2023-01-09T04:34:52;7.20;99.90
61392;DHT22;47261;52.892;5.738;2023-01-09T04:37:18;7.20;99.90
61392;DHT22;47261;52.892;5.738;2023-01-09T04:39:43;7.20;99.90
61392;DHT22;47261;52.892;5.738;2023-01-09T04:42:10;7.20;99.90
61392;DHT22;47261;52.892;5.738;2023-01-09T04:44:36;7.20;99.90
61392;DHT22;47261;52.892;5.738;2023-01-09T04:47:01;7.20;99.80
61392;DHT22;47261;52.892;5.738;2023-01-09T04:49:27;7.20;99.80
61392;DHT22;47261;52.892;5.738;2023-01-09T04:51:53;7.20;99.80
61392;DHT22;47261;52.892;5.738;2023-01-09T04:54:19;7.10;99.80
61392;DHT22;47261;52.892;5.738;2023-01-09T04:56:45;7.10;99.70
61392;DHT22;47261;52.892;5.738;2023-01-09T04:59:11;7.10;99.80
61392;DHT22;47261;52.892;5.738;2023-01-09T05:01:37;7.10;99.80
61392;DHT22;47261;52.892;5.738;2023-01-09T05:04:03;7.00;99.80
61392;DHT22;47261;52.892;5.738;2023-01-09T05:06:29;7.00;99.90
61392;DHT22;47261;52.892;5.738;2023-01-09T05:08:56;7.00;99.90
61392;DHT22;47261;52.892;5.738;2023-01-09T05:11:22;7.00;99.90
61392;DHT22;47261;52.892;5.738;2023-01-09T05:13:48;7.00;99.90
61392;DHT22;47261;52.892;5.738;2023-01-09T05:16:13;7.00;99.90
61392;DHT22;47261;52.892;5.738;2023-01-09T05:18:39;7.00;99.90
61392;DHT22;47261;52.892;5.738;2023-01-09T05:21:05;7.00;99.90
61392;DHT22;47261;52.892;5.738;2023-01-09T05:23:30;7.00;99.90
61392;DHT22;47261;52.892;5.738;2023-01-09T05:25:56;7.00;99.90
61392;DHT22;47261;52.892;5.738;2023-01-09T05:28:22;7.00;99.90
61392;DHT22;47261;52.892;5.738;2023-01-09T05:30:48;7.00;99.90
61392;DHT22;47261;52.892;5.738;2023-01-09T05:33:13;7.00;99.90
61392;DHT22;47261;52.892;5.738;2023-01-09T05:35:39;7.00;99.90
61392;DHT22;47261;52.892;5.738;2023-01-09T05:38:05;7.00;99.90
61392;DHT22;47261;52.892;5.738;2023-01-09T05:40:30;7.00;99.90
61392;DHT22;47261;52.892;5.738;2023-01-09T05:42:56;7.00;99.90
61392;DHT22;47261;52.892;5.738;2023-01-09T05:45:22;7.00;99.90
61392;DHT22;47261;52.892;5.738;2023-01-09T05:47:47;6.90;99.90
61392;DHT22;47261;52.892;5.738;2023-01-09T05:50:14;6.90;99.90
61392;DHT22;47261;52.892;5.738;2023-01-09T05:52:39;6.90;99.90
61392;DHT22;47261;52.892;5.738;2023-01-09T05:55:06;6.80;99.90
61392;DHT22;47261;52.892;5.738;2023-01-09T05:57:32;6.80;99.90
61392;DHT22;47261;52.892;5.738;2023-01-09T05:59:57;6.80;99.90
61392;DHT22;47261;52.892;5.738;2023-01-09T06:02:23;6.70;99.90
61392;DHT22;47261;52.892;5.738;2023-01-09T06:04:49;6.60;99.90
61392;DHT22;47261;52.892;5.738;2023-01-09T06:07:14;6.60;99.90
61392;DHT22;47261;52.892;5.738;2023-01-09T06:09:40;6.60;99.90
61392;DHT22;47261;52.892;5.738;2023-01-09T06:12:06;6.50;99.90
61392;DHT22;47261;52.892;5.738;2023-01-09T06:14:31;6.50;99.90
61392;DHT22;47261;52.892;5.738;2023-01-09T06:16:57;6.40;99.90
61392;DHT22;47261;52.892;5.738;2023-01-09T06:19:23;6.40;99.90
61392;DHT22;47261;52.892;5.738;2023-01-09T06:21:49;6.40;99.90
61392;DHT22;47261;52.892;5.738;2023-01-09T06:24:14;6.30;99.90
61392;DHT22;47261;52.892;5.738;2023-01-09T06:26:40;6.30;99.90
61392;DHT22;47261;52.892;5.738;2023-01-09T06:29:05;6.30;99.90
61392;DHT22;47261;52.892;5.738;2023-01-09T06:31:32;6.20;99.90
61392;DHT22;47261;52.892;5.738;2023-01-09T06:33:58;6.20;99.90
61392;DHT22;47261;52.892;5.738;2023-01-09T06:36:23;6.20;99.90
61392;DHT22;47261;52.892;5.738;2023-01-09T06:38:49;6.20;99.90
61392;DHT22;47261;52.892;5.738;2023-01-09T06:41:15;6.20;99.90
61392;DHT22;47261;52.892;5.738;2023-01-09T06:43:40;6.20;99.90
61392;DHT22;47261;52.892;5.738;2023-01-09T06:46:06;6.20;99.90
61392;DHT22;47261;52.892;5.738;2023-01-09T06:48:32;6.30;99.90
61392;DHT22;47261;52.892;5.738;2023-01-09T06:50:58;6.30;99.90
61392;DHT22;47261;52.892;5.738;2023-01-09T06:53:24;6.30;99.90
61392;DHT22;47261;52.892;5.738;2023-01-09T06:55:50;6.30;99.90
61392;DHT22;47261;52.892;5.738;2023-01-09T06:58:16;6.40;99.90
61392;DHT22;47261;52.892;5.738;2023-01-09T07:00:42;6.40;99.90
61392;DHT22;47261;52.892;5.738;2023-01-09T07:03:08;6.40;99.90
61392;DHT22;47261;52.892;5.738;2023-01-09T07:05:40;6.40;99.90
61392;DHT22;47261;52.892;5.738;2023-01-09T07:08:06;6.40;99.90
61392;DHT22;47261;52.892;5.738;2023-01-09T07:10:32;6.50;99.90
61392;DHT22;47261;52.892;5.738;2023-01-09T07:12:58;6.40;99.90
61392;DHT22;47261;52.892;5.738;2023-01-09T07:15:23;6.50;99.90
61392;DHT22;47261;52.892;5.738;2023-01-09T07:17:52;6.50;99.90
61392;DHT22;47261;52.892;5.738;2023-01-09T07:20:18;6.50;99.90
61392;DHT22;47261;52.892;5.738;2023-01-09T07:22:45;6.50;99.90
61392;DHT22;47261;52.892;5.738;2023-01-09T07:25:11;6.50;99.90
61392;DHT22;47261;52.892;5.738;2023-01-09T07:27:36;6.60;99.90
61392;DHT22;47261;52.892;5.738;2023-01-09T07:30:03;6.60;99.90
61392;DHT22;47261;52.892;5.738;2023-01-09T07:32:29;6.60;99.90
61392;DHT22;47261;52.892;5.738;2023-01-09T07:34:54;6.60;99.90
61392;DHT22;47261;52.892;5.738;2023-01-09T07:37:20;6.70;99.90
61392;DHT22;47261;52.892;5.738;2023-01-09T07:39:47;6.70;99.90
61392;DHT22;47261;52.892;5.738;2023-01-09T07:42:13;6.70;99.90
61392;DHT22;47261;52.892;5.738;2023-01-09T07:44:38;6.70;99.90
61392;DHT22;47261;52.892;5.738;2023-01-09T07:47:04;6.80;99.90
61392;DHT22;47261;52.892;5.738;2023-01-09T07:49:30;6.80;99.90
61392;DHT22;47261;52.892;5.738;2023-01-09T07:51:55;6.80;99.90
61392;DHT22;47261;52.892;5.738;2023-01-09T07:54:21;6.80;99.90
61392;DHT22;47261;52.892;5.738;2023-01-09T07:56:47;6.90;99.90
61392;DHT22;47261;52.892;5.738;2023-01-09T07:59:13;6.90;99.90
61392;DHT22;47261;52.892;5.738;2023-01-09T08:01:38;7.00;99.90
61392;DHT22;47261;52.892;5.738;2023-01-09T08:04:04;7.00;99.90
61392;DHT22;47261;52.892;5.738;2023-01-09T08:06:30;7.00;99.90
61392;DHT22;47261;52.892;5.738;2023-01-09T08:08:58;7.00;99.90
61392;DHT22;47261;52.892;5.738;2023-01-09T08:11:24;7.10;99.90
61392;DHT22;47261;52.892;5.738;2023-01-09T08:13:50;7.10;99.90
61392;DHT22;47261;52.892;5.738;2023-01-09T08:16:16;7.10;99.90
61392;DHT22;47261;52.892;5.738;2023-01-09T08:18:42;7.10;99.90
61392;DHT22;47261;52.892;5.738;2023-01-09T08:21:08;7.10;99.90
61392;DHT22;47261;52.892;5.738;2023-01-09T08:23:35;7.10;99.90
61392;DHT22;47261;52.892;5.738;2023-01-09T08:26:01;7.20;99.90
61392;DHT22;47261;52.892;5.738;2023-01-09T08:28:27;7.20;99.90
61392;DHT22;47261;52.892;5.738;2023-01-09T08:30:52;7.20;99.90
61392;DHT22;47261;52.892;5.738;2023-01-09T08:33:18;7.20;99.90
61392;DHT22;47261;52.892;5.738;2023-01-09T08:35:44;7.20;99.90
61392;DHT22;47261;52.892;5.738;2023-01-09T08:38:10;7.20;99.90
61392;DHT22;47261;52.892;5.738;2023-01-09T08:40:35;7.30;99.90
61392;DHT22;47261;52.892;5.738;2023-01-09T08:43:01;7.30;99.90
61392;DHT22;47261;52.892;5.738;2023-01-09T08:45:46;7.30;99.90
61392;DHT22;47261;52.892;5.738;2023-01-09T08:48:30;7.30;99.90
61392;DHT22;47261;52.892;5.738;2023-01-09T08:50:56;7.30;99.90
61392;DHT22;47261;52.892;5.738;2023-01-09T08:53:21;7.40;99.90
61392;DHT22;47261;52.892;5.738;2023-01-09T08:55:47;7.40;99.90
61392;DHT22;47261;52.892;5.738;2023-01-09T08:58:13;7.40;99.90
61392;DHT22;47261;52.892;5.738;2023-01-09T09:00:38;7.40;99.90
61392;DHT22;47261;52.892;5.738;2023-01-09T09:03:04;7.50;99.90
61392;DHT22;47261;52.892;5.738;2023-01-09T09:05:31;7.50;99.90
61392;DHT22;47261;52.892;5.738;2023-01-09T09:07:57;7.50;99.90
61392;DHT22;47261;52.892;5.738;2023-01-09T09:10:26;7.50;99.90
61392;DHT22;47261;52.892;5.738;2023-01-09T09:12:53;7.50;99.90
61392;DHT22;47261;52.892;5.738;2023-01-09T09:15:20;7.60;99.90
61392;DHT22;47261;52.892;5.738;2023-01-09T09:17:57;7.60;99.90
61392;DHT22;47261;52.892;5.738;2023-01-09T09:20:26;7.60;99.90
61392;DHT22;47261;52.892;5.738;2023-01-09T09:22:52;7.60;99.90
61392;DHT22;47261;52.892;5.738;2023-01-09T09:25:18;7.60;99.90
61392;DHT22;47261;52.892;5.738;2023-01-09T09:27:45;7.60;99.90
61392;DHT22;47261;52.892;5.738;2023-01-09T09:30:12;7.60;99.90
61392;DHT22;47261;52.892;5.738;2023-01-09T09:32:38;7.60;99.90
61392;DHT22;47261;52.892;5.738;2023-01-09T09:35:04;7.60;99.90
61392;DHT22;47261;52.892;5.738;2023-01-09T09:37:30;7.60;99.90
61392;DHT22;47261;52.892;5.738;2023-01-09T09:39:56;7.60;99.90
61392;DHT22;47261;52.892;5.738;2023-01-09T09:42:35;7.70;99.90
61392;DHT22;47261;52.892;5.738;2023-01-09T09:54:03;7.80;99.90
61392;DHT22;47261;52.892;5.738;2023-01-09T09:56:35;7.80;99.90
61392;DHT22;47261;52.892;5.738;2023-01-09T09:59:19;7.80;99.90
61392;DHT22;47261;52.892;5.738;2023-01-09T10:01:54;7.80;99.90
61392;DHT22;47261;52.892;5.738;2023-01-09T10:04:23;7.90;99.90
61392;DHT22;47261;52.892;5.738;2023-01-09T10:06:56;7.90;99.90
61392;DHT22;47261;52.892;5.738;2023-01-09T10:12:38;7.90;99.90
61392;DHT22;47261;52.892;5.738;2023-01-09T10:15:33;8.00;99.90
61392;DHT22;47261;52.892;5.738;2023-01-09T10:18:16;8.00;99.90
61392;DHT22;47261;52.892;5.738;2023-01-09T10:21:01;8.10;99.90
61392;DHT22;47261;52.892;5.738;2023-01-09T10:31:44;8.30;99.90
61392;DHT22;47261;52.892;5.738;2023-01-09T10:34:34;8.30;99.90
61392;DHT22;47261;52.892;5.738;2023-01-09T10:37:12;8.40;99.90
61392;DHT22;47261;52.892;5.738;2023-01-09T10:39:51;8.40;99.90
61392;DHT22;47261;52.892;5.738;2023-01-09T10:44:55;8.50;99.90
61392;DHT22;47261;52.892;5.738;2023-01-09T10:47:32;8.40;99.90
61392;DHT22;47261;52.892;5.738;2023-01-09T10:50:01;8.40;99.90
61392;DHT22;47261;52.892;5.738;2023-01-09T10:52:36;8.40;99.90
61392;DHT22;47261;52.892;5.738;2023-01-09T10:55:24;8.40;99.90
61392;DHT22;47261;52.892;5.738;2023-01-09T10:57:57;8.40;99.90
61392;DHT22;47261;52.892;5.738;2023-01-09T11:00:24;8.40;99.90
61392;DHT22;47261;52.892;5.738;2023-01-09T11:02:51;8.30;99.90
61392;DHT22;47261;52.892;5.738;2023-01-09T11:05:26;8.40;99.90
61392;DHT22;47261;52.892;5.738;2023-01-09T11:07:57;8.40;99.90
61392;DHT22;47261;52.892;5.738;2023-01-09T11:10:49;8.40;99.90
61392;DHT22;47261;52.892;5.738;2023-01-09T11:15:44;8.40;99.90
61392;DHT22;47261;52.892;5.738;2023-01-09T11:18:19;8.40;99.90
61392;DHT22;47261;52.892;5.738;2023-01-09T11:20:45;8.40;99.90
61392;DHT22;47261;52.892;5.738;2023-01-09T11:25:57;8.50;99.90
61392;DHT22;47261;52.892;5.738;2023-01-09T11:28:22;8.50;99.90
61392;DHT22;47261;52.892;5.738;2023-01-09T11:30:54;8.50;99.90
61392;DHT22;47261;52.892;5.738;2023-01-09T11:33:23;8.50;99.90
61392;DHT22;47261;52.892;5.738;2023-01-09T11:36:11;8.60;99.90
61392;DHT22;47261;52.892;5.738;2023-01-09T11:38:57;8.70;99.90
61392;DHT22;47261;52.892;5.738;2023-01-09T11:41:30;8.80;99.90
61392;DHT22;47261;52.892;5.738;2023-01-09T11:43:58;8.90;99.90
61392;DHT22;47261;52.892;5.738;2023-01-09T11:46:31;9.00;99.90
61392;DHT22;47261;52.892;5.738;2023-01-09T11:48:58;9.00;99.90
61392;DHT22;47261;52.892;5.738;2023-01-09T11:51:27;9.10;99.90
61392;DHT22;47261;52.892;5.738;2023-01-09T11:56:37;9.10;99.90
61392;DHT22;47261;52.892;5.738;2023-01-09T11:59:15;9.20;99.90
61392;DHT22;47261;52.892;5.738;2023-01-09T12:10:44;9.10;99.90
61392;DHT22;47261;52.892;5.738;2023-01-09T12:16:37;9.10;99.90
61392;DHT22;47261;52.892;5.738;2023-01-09T12:24:38;9.10;99.90
61392;DHT22;47261;52.892;5.738;2023-01-09T12:30:24;9.20;99.90
61392;DHT22;47261;52.892;5.738;2023-01-09T12:35:40;9.20;99.90
61392;DHT22;47261;52.892;5.738;2023-01-09T12:38:23;9.30;99.90
61392;DHT22;47261;52.892;5.738;2023-01-09T12:44:07;9.50;99.90
61392;DHT22;47261;52.892;5.738;2023-01-09T12:49:28;9.70;99.90
61392;DHT22;47261;52.892;5.738;2023-01-09T12:57:29;9.80;99.40
61392;DHT22;47261;52.892;5.738;2023-01-09T13:00:20;9.70;99.20
61392;DHT22;47261;52.892;5.738;2023-01-09T13:03:05;9.70;99.30
61392;DHT22;47261;52.892;5.738;2023-01-09T13:06:01;9.70;99.40
61392;DHT22;47261;52.892;5.738;2023-01-09T13:08:35;9.70;99.80
61392;DHT22;47261;52.892;5.738;2023-01-09T13:11:09;9.90;99.90
61392;DHT22;47261;52.892;5.738;2023-01-09T13:13:49;9.90;99.60
61392;DHT22;47261;52.892;5.738;2023-01-09T13:16:24;9.90;99.10
61392;DHT22;47261;52.892;5.738;2023-01-09T13:18:57;10.00;99.40
61392;DHT22;47261;52.892;5.738;2023-01-09T13:21:24;10.10;99.20
61392;DHT22;47261;52.892;5.738;2023-01-09T13:26:56;10.20;98.60
61392;DHT22;47261;52.892;5.738;2023-01-09T13:29:28;10.20;98.40
61392;DHT22;47261;52.892;5.738;2023-01-09T13:35:19;10.30;98.00
61392;DHT22;47261;52.892;5.738;2023-01-09T13:37:50;10.30;97.50
61392;DHT22;47261;52.892;5.738;2023-01-09T13:42:57;10.30;97.50
61392;DHT22;47261;52.892;5.738;2023-01-09T13:45:27;10.20;97.40
61392;DHT22;47261;52.892;5.738;2023-01-09T13:50:36;10.00;96.90
61392;DHT22;47261;52.892;5.738;2023-01-09T13:56:04;9.80;97.00
61392;DHT22;47261;52.892;5.738;2023-01-09T14:01:01;9.50;97.30
61392;DHT22;47261;52.892;5.738;2023-01-09T14:03:30;9.50;97.50
61392;DHT22;47261;52.892;5.738;2023-01-09T14:08:29;9.20;97.40
61392;DHT22;47261;52.892;5.738;2023-01-09T14:11:02;9.10;97.40
61392;DHT22;47261;52.892;5.738;2023-01-09T14:13:41;9.00;97.60
61392;DHT22;47261;52.892;5.738;2023-01-09T14:19:00;8.90;98.10
61392;DHT22;47261;52.892;5.738;2023-01-09T14:21:44;8.90;98.30
61392;DHT22;47261;52.892;5.738;2023-01-09T14:24:59;8.80;98.50
61392;DHT22;47261;52.892;5.738;2023-01-09T14:38:48;8.90;99.10
61392;DHT22;47261;52.892;5.738;2023-01-09T14:44:02;8.90;99.40
61392;DHT22;47261;52.892;5.738;2023-01-09T14:46:32;8.90;99.40
61392;DHT22;47261;52.892;5.738;2023-01-09T14:49:04;8.90;99.50
61392;DHT22;47261;52.892;5.738;2023-01-09T14:51:35;8.90;99.40
61392;DHT22;47261;52.892;5.738;2023-01-09T14:54:11;8.90;99.40
61392;DHT22;47261;52.892;5.738;2023-01-09T14:56:45;8.90;99.50
61392;DHT22;47261;52.892;5.738;2023-01-09T14:59:13;9.00;99.50
61392;DHT22;47261;52.892;5.738;2023-01-09T15:01:42;9.00;99.50
61392;DHT22;47261;52.892;5.738;2023-01-09T15:06:56;8.90;99.50
61392;DHT22;47261;52.892;5.738;2023-01-09T15:09:26;8.90;99.50
61392;DHT22;47261;52.892;5.738;2023-01-09T15:11:59;8.90;99.50
61392;DHT22;47261;52.892;5.738;2023-01-09T15:16:56;8.90;99.60
61392;DHT22;47261;52.892;5.738;2023-01-09T15:19:22;8.90;99.60
61392;DHT22;47261;52.892;5.738;2023-01-09T15:22:05;8.90;99.50
61392;DHT22;47261;52.892;5.738;2023-01-09T15:24:33;8.90;99.50
61392;DHT22;47261;52.892;5.738;2023-01-09T15:27:14;8.80;99.40
61392;DHT22;47261;52.892;5.738;2023-01-09T15:29:40;8.80;99.50
61392;DHT22;47261;52.892;5.738;2023-01-09T15:34:31;8.80;99.50
61392;DHT22;47261;52.892;5.738;2023-01-09T15:36:58;8.70;99.50
61392;DHT22;47261;52.892;5.738;2023-01-09T15:39:27;8.70;99.50
61392;DHT22;47261;52.892;5.738;2023-01-09T15:41:56;8.70;99.50
61392;DHT22;47261;52.892;5.738;2023-01-09T15:44:42;8.60;99.50
61392;DHT22;47261;52.892;5.738;2023-01-09T15:47:21;8.60;99.40
61392;DHT22;47261;52.892;5.738;2023-01-09T15:49:47;8.50;99.40
61392;DHT22;47261;52.892;5.738;2023-01-09T15:52:14;8.50;99.50
61392;DHT22;47261;52.892;5.738;2023-01-09T15:54:42;8.40;99.40
61392;DHT22;47261;52.892;5.738;2023-01-09T15:59:52;8.30;99.40
61392;DHT22;47261;52.892;5.738;2023-01-09T16:02:19;8.30;99.30
61392;DHT22;47261;52.892;5.738;2023-01-09T16:05:06;8.30;99.30
61392;DHT22;47261;52.892;5.738;2023-01-09T16:07:33;8.20;99.20
61392;DHT22;47261;52.892;5.738;2023-01-09T16:09:59;8.10;99.20
61392;DHT22;47261;52.892;5.738;2023-01-09T16:12:26;8.10;99.20
61392;DHT22;47261;52.892;5.738;2023-01-09T16:14:58;8.00;99.10
61392;DHT22;47261;52.892;5.738;2023-01-09T16:17:24;8.00;99.20
61392;DHT22;47261;52.892;5.738;2023-01-09T16:20:11;7.90;99.20
61392;DHT22;47261;52.892;5.738;2023-01-09T16:22:55;7.90;99.30
61392;DHT22;47261;52.892;5.738;2023-01-09T16:25:28;7.80;99.30
61392;DHT22;47261;52.892;5.738;2023-01-09T16:28:20;7.80;99.50
61392;DHT22;47261;52.892;5.738;2023-01-09T16:31:04;7.70;99.20
61392;DHT22;47261;52.892;5.738;2023-01-09T16:33:32;7.70;99.20
61392;DHT22;47261;52.892;5.738;2023-01-09T16:35:59;7.70;99.20
61392;DHT22;47261;52.892;5.738;2023-01-09T16:38:25;7.60;99.20
61392;DHT22;47261;52.892;5.738;2023-01-09T16:40:58;7.60;99.30
61392;DHT22;47261;52.892;5.738;2023-01-09T16:43:44;7.50;99.30
61392;DHT22;47261;52.892;5.738;2023-01-09T16:46:10;7.50;99.30
61392;DHT22;47261;52.892;5.738;2023-01-09T16:48:37;7.50;99.40
61392;DHT22;47261;52.892;5.738;2023-01-09T16:51:03;7.40;99.40
61392;DHT22;47261;52.892;5.738;2023-01-09T16:53:29;7.40;99.40
61392;DHT22;47261;52.892;5.738;2023-01-09T16:55:57;7.40;99.50
61392;DHT22;47261;52.892;5.738;2023-01-09T16:58:28;7.30;99.60
61392;DHT22;47261;52.892;5.738;2023-01-09T17:00:55;7.30;99.70
61392;DHT22;47261;52.892;5.738;2023-01-09T17:03:20;7.30;99.70
61392;DHT22;47261;52.892;5.738;2023-01-09T17:05:55;7.30;99.70
61392;DHT22;47261;52.892;5.738;2023-01-09T17:08:23;7.30;99.80
61392;DHT22;47261;52.892;5.738;2023-01-09T17:10:50;7.30;99.80
61392;DHT22;47261;52.892;5.738;2023-01-09T17:13:16;7.30;99.80
61392;DHT22;47261;52.892;5.738;2023-01-09T17:15:42;7.30;99.80
61392;DHT22;47261;52.892;5.738;2023-01-09T17:18:19;7.30;99.90
61392;DHT22;47261;52.892;5.738;2023-01-09T17:20:56;7.30;99.90
61392;DHT22;47261;52.892;5.738;2023-01-09T17:23:22;7.30;99.90
61392;DHT22;47261;52.892;5.738;2023-01-09T17:25:56;7.30;99.90
61392;DHT22;47261;52.892;5.738;2023-01-09T17:28:49;7.30;99.90
61392;DHT22;47261;52.892;5.738;2023-01-09T17:31:15;7.30;99.90
61392;DHT22;47261;52.892;5.738;2023-01-09T17:33:41;7.30;99.90
61392;DHT22;47261;52.892;5.738;2023-01-09T17:36:19;7.30;99.90
61392;DHT22;47261;52.892;5.738;2023-01-09T17:38:46;7.30;99.90
61392;DHT22;47261;52.892;5.738;2023-01-09T17:41:19;7.30;99.90
61392;DHT22;47261;52.892;5.738;2023-01-09T17:43:45;7.30;99.90
61392;DHT22;47261;52.892;5.738;2023-01-09T17:46:14;7.20;99.90
61392;DHT22;47261;52.892;5.738;2023-01-09T17:48:40;7.20;99.80
61392;DHT22;47261;52.892;5.738;2023-01-09T17:51:07;7.10;99.80
61392;DHT22;47261;52.892;5.738;2023-01-09T17:53:33;7.10;99.80
61392;DHT22;47261;52.892;5.738;2023-01-09T17:55:59;7.10;99.80
61392;DHT22;47261;52.892;5.738;2023-01-09T17:58:27;7.00;99.80
61392;DHT22;47261;52.892;5.738;2023-01-09T18:00:55;7.00;99.80
61392;DHT22;47261;52.892;5.738;2023-01-09T18:03:21;7.00;99.80
61392;DHT22;47261;52.892;5.738;2023-01-09T18:05:48;6.90;99.80
61392;DHT22;47261;52.892;5.738;2023-01-09T18:08:14;6.90;99.80
61392;DHT22;47261;52.892;5.738;2023-01-09T18:10:40;6.90;99.80
61392;DHT22;47261;52.892;5.738;2023-01-09T18:13:08;6.80;99.90